Bookmark and Share
Track history (hours):
 

Deva

Last reported at 2014-Apr-24 05:33 UTC. Time now 2014-Apr-24 06:13 UTC.
Position N 31°52' E 034°33'.

Length 259 m; draft 10.4 m.

Type: Ship (hazmat cat A). MMSI: 636013644.

NotesDate/timePositionNaut miles runAvg speedWind from/ knotsBaromVisibWave heightAir tempDewpointWater temp
2014-Apr-24 05:33N 31°52' E 034°33'1514.7
2014-Apr-24 04:33N 31°57' E 034°17'1918.8
2014-Apr-24 03:33N 31°60' E 033°56'2120.7
2014-Apr-24 02:33N 32°00' E 033°31'2121.2
2014-Apr-24 01:33N 31°60' E 033°06'2121.0
2014-Apr-24 00:33N 32°00' E 032°41'2120.9
2014-Apr-23 23:33N 31°60' E 032°17'2020.6
2014-Apr-23 22:33N 31°59' E 031°53'4120.3
2014-Apr-23 20:32N 31°49' E 031°06'2120.7
2014-Apr-23 19:32N 31°43' E 030°42'2020.5
2014-Apr-23 18:33N 31°38' E 030°20'2020.2
2014-Apr-23 17:33N 31°24' E 030°01'17 0.5
2014-Apr-22 08:31N 31°10' E 029°51'3 3.5
2014-Apr-22 07:33N 31°11' E 029°47'2 0.2
2014-Apr-21 21:18N 31°09' E 029°48'0 0.0
2014-Apr-21 20:33N 31°09' E 029°48'0 0.0
2014-Apr-21 18:18N 31°09' E 029°48'52 3.8
2014-Apr-21 04:33N 31°42' E 030°34'13321.0
2014-Apr-20 22:14N 32°28' E 033°02'1421.1
2014-Apr-20 21:33N 32°34' E 033°17'2120.8
2014-Apr-20 20:34N 32°42' E 033°39'2120.5
2014-Apr-20 19:33N 32°51' E 034°02'2020.5
2014-Apr-20 18:33N 32°57' E 034°25'2121.0
2014-Apr-20 17:34N 32°54' E 034°50'10 4.3
2014-Apr-20 15:11N 32°49' E 035°01'0 0.0
2014-Apr-20 14:29N 32°49' E 035°01'0 0.0
2014-Apr-20 12:32N 32°49' E 035°01'8 0.2
2014-Apr-19 03:17N 32°54' E 034°53'912.3
2014-Apr-19 02:33N 32°56' E 034°43'1211.9
2014-Apr-19 01:33N 32°58' E 034°29'5211.8
2014-Apr-18 21:07N 33°34' E 033°44'812.5
2014-Apr-18 20:30N 33°41' E 033°39'4212.5
2014-Apr-18 17:09N 34°18' E 033°16'712.4
2014-Apr-18 16:33N 34°24' E 033°12'1312.7
2014-Apr-18 15:34N 34°36' E 033°05'5 4.5
2014-Apr-18 14:33N 34°39' E 033°01'0 0.0
2014-Apr-18 13:33N 34°39' E 033°01'0 0.0
2014-Apr-18 12:33N 34°39' E 033°01'0 0.0
2014-Apr-18 11:33N 34°39' E 033°01'0 0.0
2014-Apr-18 10:33N 34°39' E 033°01'0 0.0
2014-Apr-18 09:33N 34°39' E 033°01'0 0.0
2014-Apr-18 08:33N 34°39' E 033°01'0 0.0
2014-Apr-18 07:33N 34°39' E 033°01'0 0.0
2014-Apr-18 06:33N 34°39' E 033°01'0 0.0
2014-Apr-18 05:33N 34°39' E 033°01'0 0.0
2014-Apr-18 04:33N 34°39' E 033°01'0 0.4
2014-Apr-18 03:33N 34°39' E 033°01'2 2.1
2014-Apr-18 02:31N 34°40' E 033°04'0 0.1
2014-Apr-18 01:31N 34°40' E 033°04'0 0.2
2014-Apr-18 00:31N 34°40' E 033°04'0 0.0
2014-Apr-17 23:31N 34°40' E 033°04'0 0.0
2014-Apr-17 22:31N 34°40' E 033°04'0 0.0
2014-Apr-17 21:31N 34°40' E 033°04'0 0.1
2014-Apr-17 20:31N 34°40' E 033°04'0 0.0
2014-Apr-17 19:31N 34°40' E 033°04'0 0.0
2014-Apr-17 18:31N 34°40' E 033°04'0 0.0
2014-Apr-17 17:31N 34°40' E 033°04'0 0.0
2014-Apr-17 16:31N 34°40' E 033°04'2 1.6
2014-Apr-17 15:33N 34°39' E 033°05'1010.2
2014-Apr-17 14:33N 34°29' E 033°03'1312.5
2014-Apr-17 13:33N 34°19' E 032°54'1211.7
2014-Apr-17 12:32N 34°10' E 032°45'2 2.0
2014-Apr-17 11:31N 34°12' E 032°43'2 1.7
2014-Apr-17 10:31N 34°13' E 032°42'2 1.6
2014-Apr-17 09:31N 34°15' E 032°41'1 1.5
2014-Apr-17 08:31N 34°16' E 032°41'1 1.4
2014-Apr-17 07:31N 34°17' E 032°40'1 1.2
2014-Apr-17 06:31N 34°18' E 032°40'1 0.9
2014-Apr-17 05:31N 34°19' E 032°39'1 0.9
2014-Apr-17 04:31N 34°20' E 032°39'1 0.8
2014-Apr-17 03:31N 34°21' E 032°39'1 0.7
2014-Apr-17 02:31N 34°22' E 032°39'1 0.6
2014-Apr-17 01:31N 34°22' E 032°39'1 0.5
2014-Apr-17 00:33N 34°23' E 032°38'0 0.3
2014-Apr-16 23:34N 34°22' E 032°38'1010.0
2014-Apr-16 22:33N 34°21' E 032°26'1312.8
2014-Apr-16 21:33N 34°18' E 032°11'1312.6
2014-Apr-16 20:33N 34°14' E 031°57'  

Dump ship's entire track history

sailing weather and tide predictions

Deva — A8OK3 — position and weather